createdAt,value
2023-05-19T00:01:50.487Z,72.10
2023-05-19T00:06:54.328Z,71.87
2023-05-19T00:11:57.812Z,71.77
2023-05-19T00:48:03.280Z,72.04
2023-05-19T00:53:07.107Z,71.99
2023-05-19T00:58:12.281Z,72.20
2023-05-19T01:03:20.567Z,72.15
2023-05-19T01:08:24.008Z,72.23
2023-05-19T01:13:28.334Z,72.52
2023-05-19T01:18:45.710Z,72.46
2023-05-19T01:24:11.618Z,72.41
2023-05-19T01:29:37.003Z,72.12
2023-05-19T01:34:44.395Z,72.26
2023-05-19T01:39:48.604Z,72.19
2023-05-19T01:48:12.907Z,72.04
2023-05-19T01:53:16.538Z,72.08
2023-05-19T01:58:28.705Z,72.06
2023-05-19T02:04:01.037Z,72.11
2023-05-19T02:09:40.822Z,72.11
2023-05-19T02:14:54.573Z,72.13
2023-05-19T02:19:57.613Z,72.24
2023-05-19T02:25:00.882Z,72.48
2023-05-19T02:30:05.165Z,72.61
2023-05-19T02:35:08.565Z,72.85
2023-05-19T02:40:11.774Z,73.02
2023-05-19T02:45:15.025Z,72.99
2023-05-19T02:50:18.116Z,72.94
2023-05-19T02:55:21.170Z,72.92
2023-05-19T03:00:24.382Z,72.48
2023-05-19T03:05:27.876Z,72.44
2023-05-19T03:10:31.768Z,72.35
2023-05-19T03:15:35.456Z,72.48
2023-05-19T03:20:40.914Z,72.65
2023-05-19T03:25:44.568Z,72.70
2023-05-19T03:30:50.249Z,72.73
2023-05-19T03:35:57.529Z,72.85
2023-05-19T03:41:01.004Z,73.00
2023-05-19T03:46:04.257Z,72.58
2023-05-19T03:51:31.329Z,72.76
2023-05-19T03:56:52.260Z,72.89
2023-05-19T04:01:55.428Z,73.01
2023-05-19T04:06:58.821Z,73.16
2023-05-19T04:12:05.261Z,73.11
2023-05-19T04:17:08.979Z,73.17
2023-05-19T04:22:12.171Z,72.94
2023-05-19T04:27:18.246Z,72.91
2023-05-19T04:32:25.994Z,72.93
2023-05-19T04:37:30.151Z,73.11
2023-05-19T04:42:34.083Z,73.31
2023-05-19T04:47:38.310Z,73.24
2023-05-19T04:52:43.222Z,73.29
2023-05-19T04:57:52.067Z,73.22
2023-05-19T05:02:57.855Z,73.19
2023-05-19T05:08:03.308Z,73.19
2023-05-19T05:13:11.909Z,73.11
2023-05-19T05:18:16.259Z,73.00
2023-05-19T05:23:19.604Z,72.85
2023-05-19T05:28:23.912Z,72.78
2023-05-19T05:33:27.562Z,72.59
2023-05-19T05:38:31.284Z,72.38
2023-05-19T05:43:35.821Z,72.33
2023-05-19T05:48:42.186Z,72.57
2023-05-19T05:53:52.058Z,72.66
2023-05-19T05:58:55.810Z,72.39
2023-05-19T06:03:58.967Z,72.66
2023-05-19T06:09:02.534Z,72.54
2023-05-19T06:14:05.957Z,72.56
2023-05-19T06:19:29.000Z,72.56
2023-05-19T06:24:32.017Z,72.42
2023-05-19T06:29:35.082Z,72.33
2023-05-19T06:34:40.688Z,72.62
2023-05-19T06:39:49.151Z,72.45
2023-05-19T06:44:57.658Z,72.48
2023-05-19T06:50:03.753Z,72.30
2023-05-19T06:55:08.985Z,72.34
2023-05-19T07:00:16.106Z,72.25
2023-05-19T07:05:22.992Z,72.65
2023-05-19T07:10:29.570Z,72.58
2023-05-19T07:15:33.238Z,72.70
2023-05-19T07:20:37.064Z,72.49
2023-05-19T07:25:46.000Z,72.16
2023-05-19T07:30:50.024Z,72.15
2023-05-19T07:35:53.548Z,72.12
2023-05-19T07:40:56.620Z,72.15
2023-05-19T07:45:59.849Z,71.83
2023-05-19T07:51:03.456Z,71.78
2023-05-19T07:56:06.893Z,71.58
2023-05-19T08:01:09.999Z,71.57
2023-05-19T08:06:13.112Z,71.40
2023-05-19T08:11:16.132Z,71.41
2023-05-19T08:16:19.211Z,71.25
2023-05-19T08:21:22.429Z,71.59
2023-05-19T08:26:26.447Z,71.41
2023-05-19T08:31:30.004Z,70.86
2023-05-19T08:36:34.030Z,70.68
2023-05-19T08:41:37.610Z,70.43
2023-05-19T08:48:14.754Z,69.99
2023-05-19T08:58:34.741Z,70.47
2023-05-19T09:03:38.468Z,70.72
2023-05-19T09:08:42.925Z,70.64
2023-05-19T09:13:46.278Z,70.49
2023-05-19T09:18:56.943Z,70.47
2023-05-19T09:24:08.041Z,70.72
2023-05-19T09:29:14.671Z,70.39
2023-05-19T09:34:18.608Z,70.34
2023-05-19T09:39:23.600Z,70.10
2023-05-19T09:44:30.730Z,70.34
2023-05-19T09:49:34.025Z,70.28
2023-05-19T09:54:37.438Z,70.49
2023-05-19T09:59:41.724Z,70.18
2023-05-19T10:04:45.389Z,70.06
2023-05-19T10:09:49.154Z,70.01
2023-05-19T10:14:54.977Z,69.99
2023-05-19T10:20:07.530Z,69.73
2023-05-19T10:25:11.757Z,69.93
2023-05-19T10:30:20.806Z,70.28
2023-05-19T10:35:50.804Z,70.14
2023-05-19T10:41:03.132Z,69.73
2023-05-19T10:46:06.586Z,69.91
2023-05-19T10:51:12.437Z,70.04
2023-05-19T10:56:30.122Z,70.02
2023-05-19T11:01:34.963Z,70.18
2023-05-19T11:06:40.515Z,70.04
2023-05-19T11:11:54.152Z,69.98
2023-05-19T11:16:59.092Z,70.03
2023-05-19T11:22:10.405Z,69.97
2023-05-19T11:27:31.754Z,69.82
2023-05-19T11:32:39.451Z,69.70
2023-05-19T11:37:43.180Z,69.71
2023-05-19T11:42:46.427Z,69.73
2023-05-19T11:48:01.400Z,69.83
2023-05-19T11:53:05.827Z,69.87
2023-05-19T11:58:09.348Z,69.68
2023-05-19T12:03:13.026Z,69.54
2023-05-19T12:08:19.318Z,69.57
2023-05-19T12:13:23.021Z,69.65
2023-05-19T12:18:30.891Z,69.63
2023-05-19T12:23:34.945Z,69.81
2023-05-19T12:28:37.917Z,69.67
2023-05-19T12:33:41.001Z,69.49
2023-05-19T12:38:45.727Z,69.34
2023-05-19T12:43:48.842Z,69.55
2023-05-19T12:48:52.037Z,69.51
2023-05-19T12:53:55.145Z,69.25
2023-05-19T12:59:01.281Z,69.34
2023-05-19T13:04:06.221Z,69.42
2023-05-19T13:09:10.989Z,69.52
2023-05-19T13:14:16.042Z,69.71
2023-05-19T13:24:26.632Z,69.57
2023-05-19T13:29:29.745Z,69.61
2023-05-19T13:34:32.747Z,69.65
2023-05-19T13:39:36.308Z,69.63
2023-05-19T13:44:39.615Z,69.66
2023-05-19T13:49:42.811Z,69.52
2023-05-19T13:54:45.835Z,69.57
2023-05-19T14:00:00.783Z,69.39
2023-05-19T14:05:15.006Z,68.99
2023-05-19T14:10:18.151Z,69.17
2023-05-19T14:15:21.435Z,69.24
2023-05-19T14:20:26.261Z,69.22
2023-05-19T14:25:30.515Z,69.18
2023-05-19T14:30:33.788Z,69.06
2023-05-19T14:35:36.975Z,69.41
2023-05-19T14:40:43.383Z,69.50
2023-05-19T14:45:46.625Z,69.54
2023-05-19T14:50:50.398Z,69.36
2023-05-19T14:55:53.700Z,69.33
2023-05-19T15:01:00.147Z,69.10
2023-05-19T15:06:03.576Z,69.28
2023-05-19T15:11:07.132Z,69.26
2023-05-19T15:16:17.524Z,69.21
2023-05-19T15:21:21.525Z,69.41
2023-05-19T15:26:24.702Z,69.30
2023-05-19T15:31:27.922Z,69.31
2023-05-19T15:36:31.700Z,69.42
2023-05-19T15:41:38.016Z,69.29
2023-05-19T15:46:41.486Z,69.23
2023-05-19T15:51:45.276Z,69.32
2023-05-19T15:56:48.295Z,69.35
2023-05-19T16:01:53.076Z,69.57
2023-05-19T16:06:56.660Z,69.53
2023-05-19T16:11:59.738Z,69.68
2023-05-19T16:17:03.859Z,69.73
2023-05-19T16:22:07.029Z,69.66
2023-05-19T16:27:10.132Z,69.73
2023-05-19T16:32:13.388Z,70.00
2023-05-19T16:37:16.553Z,70.06
2023-05-19T16:42:19.739Z,70.08
2023-05-19T16:47:23.674Z,70.16
2023-05-19T16:52:27.014Z,70.14
2023-05-19T16:57:30.133Z,70.01
2023-05-19T17:02:33.321Z,69.69
2023-05-19T17:07:36.678Z,69.62
2023-05-19T17:12:39.810Z,69.63
2023-05-19T17:17:42.900Z,69.64
2023-05-19T17:22:55.422Z,69.67
2023-05-19T17:27:59.135Z,69.67
2023-05-19T17:33:02.674Z,69.81
2023-05-19T17:38:06.001Z,69.68
2023-05-19T17:43:09.087Z,69.69
2023-05-19T17:48:12.368Z,69.53
2023-05-19T17:53:16.230Z,69.37
2023-05-19T17:58:20.186Z,69.63
2023-05-19T18:03:23.946Z,69.90
2023-05-19T18:08:28.872Z,69.99
2023-05-19T18:13:32.006Z,69.68
2023-05-19T18:18:38.881Z,69.59
2023-05-19T18:48:08.330Z,70.22
2023-05-19T18:53:12.196Z,70.17
2023-05-19T18:58:16.159Z,70.41
2023-05-19T19:03:19.571Z,70.45
2023-05-19T19:08:23.304Z,70.51
2023-05-19T19:13:29.587Z,70.68
2023-05-19T19:18:34.823Z,70.70
2023-05-19T19:23:38.572Z,70.75
2023-05-19T19:28:42.266Z,70.61
2023-05-19T19:33:45.812Z,70.50
2023-05-19T19:38:49.693Z,70.60
2023-05-19T19:43:53.367Z,70.33
2023-05-19T19:49:02.313Z,70.46
2023-05-19T19:54:05.763Z,70.60
2023-05-19T19:59:09.102Z,70.45
2023-05-19T20:04:12.655Z,70.55
2023-05-19T20:09:16.770Z,70.60
2023-05-19T20:14:20.197Z,70.61
2023-05-19T20:19:26.587Z,70.78
2023-05-19T20:24:29.961Z,70.93
2023-05-19T20:33:28.696Z,71.19
2023-05-19T20:38:32.015Z,71.84
2023-05-19T20:43:35.122Z,71.22
2023-05-19T20:48:38.334Z,70.88
2023-05-19T20:53:41.585Z,70.87
2023-05-19T20:58:44.884Z,70.89
2023-05-19T21:03:48.123Z,70.90
2023-05-19T21:08:51.435Z,70.86
2023-05-19T21:13:56.339Z,71.20
2023-05-19T21:19:00.462Z,71.40
2023-05-19T21:24:03.785Z,71.31
2023-05-19T21:33:29.018Z,71.33
2023-05-19T21:38:32.122Z,71.22
2023-05-19T21:43:35.226Z,71.25
2023-05-19T21:48:38.275Z,71.36
2023-05-19T21:53:41.324Z,71.60
2023-05-19T21:58:44.385Z,71.62
2023-05-19T22:03:48.036Z,71.71
2023-05-19T22:08:51.372Z,71.52
2023-05-19T22:13:54.947Z,71.61
2023-05-19T22:18:58.242Z,71.42
2023-05-19T22:24:01.373Z,71.41
2023-05-19T22:29:04.705Z,71.58
2023-05-19T22:34:08.265Z,71.64
2023-05-19T22:39:12.711Z,71.64
2023-05-19T22:44:16.517Z,71.58
2023-05-19T22:49:21.473Z,71.44
2023-05-19T22:54:24.543Z,71.31
2023-05-19T22:59:27.812Z,71.45
2023-05-19T23:04:32.304Z,71.38
2023-05-19T23:09:35.430Z,71.61
2023-05-19T23:14:38.743Z,71.68
2023-05-19T23:19:41.913Z,71.76
2023-05-19T23:24:44.928Z,71.83
2023-05-19T23:29:49.286Z,71.75
2023-05-19T23:34:52.444Z,72.04
2023-05-19T23:39:55.467Z,72.14
2023-05-19T23:44:59.844Z,72.44
2023-05-19T23:50:03.302Z,72.29
2023-05-19T23:55:07.784Z,72.49
